Flight Track Log - Related Links

Times and Time Zones

All times are in EDT time to prevent confusion due to time zone crossing. See the N775NC flight status page for this flight to view local times or setup timezone preferences in your user account.

Time Position Orientation Groundspeed Altitude Reporting Facility
EDT Latitude Longitude Course Direction KTS MPH feet Rate Location/Type
Fri 06:22:00 PM 33.5725 -86.7439 140° Southeast 158 182 1,500  Level Atlanta Center
Fri 06:22:48 PM 33.6028 -86.7000 50° Northeast 211 243 3,400 1,853 Climbing Atlanta Center
Fri 06:24:16 PM 33.5778 -86.5944 106° East 282 325 5,700 2,149 Climbing Atlanta Center
Fri 06:25:00 PM 33.5775 -86.4056 140° Southeast  Level Estimated
Fri 06:25:16 PM 33.5075 -86.5650 161° South 267 307 8,700  Level Atlanta Center
Fri 06:26:00 PM 33.5057 -86.4154 186° South  Level FlightAware Approximate
Fri 06:26:16 PM 33.4264 -86.5528 173° South 268 308 10,400  Level Atlanta Center
Fri 06:27:00 PM 33.5120 -86.3290 140° Southeast  Level Estimated
Fri 06:27:16 PM 33.3675 -86.4739 132° Southeast 291 335 11,900  Level Atlanta Center
Fri 06:28:16 PM 33.3528 -86.3592 99° East 295 339 13,600 1,900 Climbing Atlanta Center
Fri 06:29:16 PM 33.3364 -86.2319 99° East 349 402 15,700 1,800 Climbing Atlanta Center
Fri 06:30:16 PM 33.3072 -86.1019 105° East 373 429 17,200 1,400 Climbing Atlanta Center
Fri 06:31:16 PM 33.2719 -85.9644 107° East 406 467 18,500 1,600 Climbing Atlanta Center
Fri 06:32:16 PM 33.2386 -85.8244 106° East 426 490 20,400 1,250 Climbing Atlanta Center
Fri 06:33:16 PM 33.2197 -85.6828 99° East 431 496 21,000 -300 Climbing Atlanta Center
Fri 06:34:16 PM 33.2111 -85.5311 94° East 449 517 19,800 -1,950 Descending Atlanta Center
Fri 06:35:16 PM 33.2047 -85.3819 93° East 429 494 17,100 -3,050 Descending Atlanta Center
Fri 06:36:16 PM 33.1997 -85.2453 92° East 414 476 13,700 -2,550 Descending Atlanta Center
Fri 06:37:16 PM 33.1967 -85.1186 92° East 404 465 12,000 -850 Descending Atlanta Center
Fri 06:38:16 PM 33.2039 -85.0144 85° East 338 389 12,000 -750 Level Atlanta Center
Fri 06:39:16 PM 33.2544 -84.9581 43° Northeast 277 319 10,500 -1,550 Descending Atlanta Center
Fri 06:40:16 PM 33.3358 -84.9414 10° North 256 295 8,900 -1,300 Descending Atlanta Center
Fri 06:41:16 PM 33.4111 -84.9522 353° North 256 295 7,900 -450 Descending Atlanta Center
Fri 06:42:16 PM 33.4842 -84.9356 11° North 256 295 8,000 -350 Climbing Atlanta Center
Fri 06:43:16 PM 33.5594 -84.9089 16° North 266 306 7,200 -500 Descending Atlanta Center
Fri 06:44:16 PM 33.6203 -84.8669 30° Northeast 255 293 7,000 -255 Descending Atlanta Center
Fri 06:44:50 PM 33.6333 -84.8167 73° East 227 261 6,800 -830 Descending Atlanta TRACON
Fri 06:45:50 PM 33.6333 -84.7500 90° East 215 247 5,700 -1,050 Descending Atlanta TRACON
Fri 06:46:50 PM 33.6333 -84.6833 90° East 180 207 4,700 -950 Descending Atlanta TRACON
Fri 06:47:50 PM 33.6333 -84.6167 90° East 177 204 3,800 -900 Descending Atlanta TRACON
Fri 06:48:50 PM 33.6333 -84.5667 90° East 165 190 2,900 -857 Descending Atlanta TRACON
Fri 06:49:56 PM 33.6333 -84.5167 90° East 134 154 2,000 -750 Descending Atlanta TRACON
Fri 06:50:50 PM 33.6333 -84.4667 90° East 131 151 1,400 -667 Descending Atlanta TRACON

Login

Don't have an account? Register now (free) for customized features, flight alerts, and more!